createdAt,value
2019-03-26T00:01:15.000Z,3.17
2019-03-26T00:03:44.016Z,2.70
2019-03-26T00:06:13.184Z,2.80
2019-03-26T00:08:42.378Z,2.92
2019-03-26T00:11:11.159Z,3.20
2019-03-26T00:13:40.128Z,3.45
2019-03-26T00:16:09.597Z,2.25
2019-03-26T00:18:37.466Z,3.50
2019-03-26T00:21:06.622Z,3.33
2019-03-26T00:23:35.939Z,3.37
2019-03-26T00:26:05.411Z,2.33
2019-03-26T00:28:34.115Z,3.00
2019-03-26T00:31:03.250Z,3.77
2019-03-26T00:33:36.360Z,3.35
2019-03-26T00:36:01.963Z,2.90
2019-03-26T00:38:31.828Z,3.12
2019-03-26T00:41:00.890Z,3.22
2019-03-26T00:43:29.679Z,2.60
2019-03-26T00:45:58.090Z,3.20
2019-03-26T00:48:27.656Z,2.90
2019-03-26T00:50:56.745Z,3.00
2019-03-26T00:53:26.061Z,2.92
2019-03-26T00:55:54.299Z,3.25
2019-03-26T00:58:23.203Z,2.87
2019-03-26T01:00:52.357Z,2.70
2019-03-26T01:03:22.470Z,2.60
2019-03-26T01:05:50.813Z,2.50
2019-03-26T01:08:20.156Z,3.30
2019-03-26T01:10:49.145Z,2.80
2019-03-26T01:13:18.266Z,2.80
2019-03-26T01:15:53.807Z,3.10
2019-03-26T01:18:21.832Z,2.70
2019-03-26T01:20:49.567Z,2.40
2019-03-26T01:23:17.491Z,2.60
2019-03-26T01:25:45.899Z,3.00
2019-03-26T01:28:14.147Z,2.55
2019-03-26T01:30:43.391Z,2.98
2019-03-26T01:33:11.994Z,2.92
2019-03-26T01:35:41.620Z,3.20
2019-03-26T01:38:09.499Z,1.95
2019-03-26T01:40:38.210Z,2.33
2019-03-26T01:43:06.950Z,2.80
2019-03-26T01:45:35.734Z,3.70
2019-03-26T01:48:04.573Z,2.45
2019-03-26T01:50:33.218Z,2.52
2019-03-26T01:53:02.249Z,2.80
2019-03-26T01:55:29.866Z,2.50
2019-03-26T01:57:58.573Z,3.00
2019-03-26T02:00:27.272Z,2.72
2019-03-26T02:02:55.854Z,2.92
2019-03-26T02:05:24.722Z,2.67
2019-03-26T02:07:53.316Z,2.10
2019-03-26T02:10:22.163Z,2.12
2019-03-26T02:12:50.749Z,2.12
2019-03-26T02:15:32.453Z,2.85
2019-03-26T02:18:00.504Z,2.60
2019-03-26T02:20:28.173Z,2.50
2019-03-26T02:22:55.947Z,1.92
2019-03-26T02:25:23.877Z,2.00
2019-03-26T02:27:51.626Z,1.75
2019-03-26T02:30:20.330Z,3.05
2019-03-26T02:32:49.047Z,2.05
2019-03-26T02:35:19.046Z,2.17
2019-03-26T02:37:48.146Z,2.77
2019-03-26T02:40:16.741Z,2.40
2019-03-26T02:42:45.443Z,2.25
2019-03-26T02:45:14.101Z,3.20
2019-03-26T02:47:42.683Z,2.70
2019-03-26T02:50:11.494Z,2.40
2019-03-26T02:52:40.428Z,2.15
2019-03-26T02:55:10.438Z,2.20
2019-03-26T02:57:38.198Z,2.60
2019-03-26T03:00:08.226Z,1.82
2019-03-26T03:02:36.051Z,2.10
2019-03-26T03:05:05.277Z,2.25
2019-03-26T03:07:33.995Z,2.35
2019-03-26T03:10:02.168Z,1.98
2019-03-26T03:12:30.760Z,2.70
2019-03-26T03:14:59.338Z,2.65
2019-03-26T03:17:28.107Z,2.37
2019-03-26T03:19:56.833Z,2.70
2019-03-26T03:22:25.679Z,3.08
2019-03-26T03:24:54.592Z,2.92
2019-03-26T03:27:23.199Z,3.10
2019-03-26T03:29:51.670Z,2.60
2019-03-26T03:32:20.282Z,3.12
2019-03-26T03:34:49.142Z,2.58
2019-03-26T03:37:16.846Z,2.12
2019-03-26T03:39:45.630Z,2.60
2019-03-26T03:42:14.238Z,2.45
2019-03-26T03:44:43.165Z,3.02
2019-03-26T03:47:13.564Z,1.75
2019-03-26T03:49:42.079Z,2.47
2019-03-26T03:52:13.517Z,2.37
2019-03-26T03:54:43.293Z,3.30
2019-03-26T03:57:15.189Z,1.87
2019-03-26T03:59:45.395Z,2.22
2019-03-26T04:02:14.323Z,3.10
2019-03-26T04:04:43.155Z,1.70
2019-03-26T04:07:12.511Z,2.22
2019-03-26T04:09:42.009Z,2.47
2019-03-26T04:12:09.963Z,1.75
2019-03-26T04:14:38.526Z,1.80
2019-03-26T04:17:07.719Z,1.85
2019-03-26T04:19:36.995Z,2.47
2019-03-26T04:22:06.157Z,1.70
2019-03-26T04:24:33.768Z,2.92
2019-03-26T04:27:02.866Z,2.92
2019-03-26T04:29:32.267Z,2.50
2019-03-26T04:32:01.522Z,2.25
2019-03-26T04:34:30.944Z,3.08
2019-03-26T04:36:58.429Z,3.15
2019-03-26T04:39:28.517Z,2.40
2019-03-26T04:41:55.979Z,2.67
2019-03-26T04:44:24.741Z,3.50
2019-03-26T04:46:53.353Z,2.60
2019-03-26T04:49:22.611Z,2.02
2019-03-26T04:51:51.912Z,2.40
2019-03-26T04:54:21.233Z,3.17
2019-03-26T04:56:50.169Z,2.30
2019-03-26T04:59:19.398Z,2.33
2019-03-26T05:01:48.597Z,3.10
2019-03-26T05:04:16.878Z,2.10
2019-03-26T05:06:45.777Z,2.45
2019-03-26T05:09:14.653Z,2.75
2019-03-26T05:11:44.076Z,2.62
2019-03-26T05:14:12.898Z,2.40
2019-03-26T05:16:42.050Z,4.50
2019-03-26T05:19:11.242Z,3.25
2019-03-26T05:21:40.443Z,2.80
2019-03-26T05:24:10.558Z,2.40
2019-03-26T05:26:39.643Z,2.80
2019-03-26T05:29:09.005Z,3.37
2019-03-26T05:31:40.855Z,3.60
2019-03-26T05:34:09.314Z,2.75
2019-03-26T05:36:50.401Z,2.77
2019-03-26T05:39:09.284Z,3.33
2019-03-26T05:41:37.695Z,2.25
2019-03-26T05:44:06.781Z,2.30
2019-03-26T05:46:35.582Z,2.10
2019-03-26T05:49:04.308Z,2.60
2019-03-26T05:51:33.038Z,2.80
2019-03-26T05:54:02.134Z,2.52
2019-03-26T05:56:31.529Z,2.40
2019-03-26T05:59:00.050Z,2.75
2019-03-26T06:01:29.372Z,2.40
2019-03-26T06:04:00.988Z,2.60
2019-03-26T06:06:29.018Z,3.08
2019-03-26T06:08:57.302Z,2.20
2019-03-26T06:11:25.212Z,3.33
2019-03-26T06:13:54.582Z,2.27
2019-03-26T06:16:23.435Z,2.87
2019-03-26T06:18:52.727Z,2.70
2019-03-26T06:21:21.357Z,2.75
2019-03-26T06:23:53.486Z,2.80
2019-03-26T06:26:21.454Z,3.05
2019-03-26T06:28:51.151Z,2.80
2019-03-26T06:31:20.555Z,2.98
2019-03-26T06:33:48.927Z,2.65
2019-03-26T06:36:21.362Z,3.65
2019-03-26T06:38:49.481Z,2.70
2019-03-26T06:41:18.068Z,3.37
2019-03-26T06:43:45.938Z,3.00
2019-03-26T06:46:13.724Z,3.10
2019-03-26T06:48:47.072Z,3.27
2019-03-26T06:51:16.397Z,2.10
2019-03-26T06:53:45.087Z,3.42
2019-03-26T06:56:14.322Z,2.90
2019-03-26T06:58:43.562Z,2.40
2019-03-26T07:01:13.474Z,3.35
2019-03-26T07:03:45.766Z,2.42
2019-03-26T07:06:14.339Z,2.33
2019-03-26T07:08:42.346Z,2.35
2019-03-26T07:11:11.466Z,2.72
2019-03-26T07:13:40.399Z,2.08
2019-03-26T07:16:09.179Z,2.40
2019-03-26T07:18:38.282Z,2.00
2019-03-26T07:21:07.313Z,2.27
2019-03-26T07:23:36.954Z,2.50
2019-03-26T07:26:05.879Z,2.62
2019-03-26T07:28:34.798Z,2.12
2019-03-26T07:31:03.895Z,2.52
2019-03-26T07:33:32.959Z,1.92
2019-03-26T07:36:01.856Z,2.22
2019-03-26T07:38:31.042Z,2.22
2019-03-26T07:41:00.656Z,1.80
2019-03-26T07:43:31.870Z,2.60
2019-03-26T07:46:01.368Z,2.80
2019-03-26T07:48:30.604Z,3.33
2019-03-26T07:50:59.256Z,1.80
2019-03-26T07:53:28.492Z,2.35
2019-03-26T07:55:57.418Z,2.50
2019-03-26T07:58:26.254Z,1.80
2019-03-26T08:00:55.266Z,2.10
2019-03-26T08:03:24.565Z,2.22
2019-03-26T08:05:53.085Z,2.30
2019-03-26T08:08:22.168Z,2.20
2019-03-26T08:10:51.563Z,3.37
2019-03-26T08:13:20.857Z,2.62
2019-03-26T08:15:49.855Z,3.10
2019-03-26T08:18:25.327Z,2.42
2019-03-26T08:20:52.962Z,2.10
2019-03-26T08:23:22.303Z,2.10
2019-03-26T08:25:50.722Z,2.17
2019-03-26T08:28:18.863Z,2.50
2019-03-26T08:30:50.159Z,2.65
2019-03-26T08:33:17.441Z,2.33
2019-03-26T08:35:47.160Z,2.00
2019-03-26T08:38:15.984Z,1.77
2019-03-26T08:40:44.847Z,2.15
2019-03-26T08:43:16.799Z,2.45
2019-03-26T08:45:44.913Z,2.58
2019-03-26T08:48:12.522Z,2.37
2019-03-26T08:50:41.305Z,2.77
2019-03-26T08:53:09.865Z,3.00
2019-03-26T08:55:38.720Z,3.50
2019-03-26T08:58:07.490Z,3.47
2019-03-26T09:00:36.289Z,2.65
2019-03-26T09:03:05.233Z,3.10
2019-03-26T09:05:33.131Z,2.98
2019-03-26T09:08:02.233Z,2.55
2019-03-26T09:10:31.098Z,2.80
2019-03-26T09:13:04.439Z,2.92
2019-03-26T09:15:33.118Z,3.45
2019-03-26T09:18:01.768Z,2.90
2019-03-26T09:20:30.494Z,2.85
2019-03-26T09:22:59.323Z,3.25
2019-03-26T09:25:30.893Z,4.17
2019-03-26T09:27:59.511Z,4.22
2019-03-26T09:30:28.279Z,3.50
2019-03-26T09:32:56.987Z,3.30
2019-03-26T09:35:24.564Z,3.80
2019-03-26T09:37:55.122Z,3.20
2019-03-26T09:40:23.716Z,4.53
2019-03-26T09:42:52.458Z,3.00
2019-03-26T09:45:21.175Z,3.20
2019-03-26T09:47:50.020Z,4.37
2019-03-26T09:50:30.962Z,3.02
2019-03-26T09:52:59.615Z,3.40
2019-03-26T09:55:28.353Z,3.52
2019-03-26T09:57:56.945Z,3.30
2019-03-26T10:00:26.944Z,3.90
2019-03-26T10:02:55.704Z,4.20
2019-03-26T10:05:24.413Z,4.22
2019-03-26T10:07:53.049Z,4.45
2019-03-26T10:10:25.051Z,4.75
2019-03-26T10:12:53.727Z,4.33
2019-03-26T10:15:21.513Z,4.55
2019-03-26T10:17:49.250Z,4.28
2019-03-26T10:20:17.098Z,3.42
2019-03-26T10:22:44.826Z,3.20
2019-03-26T10:25:16.014Z,3.12
2019-03-26T10:27:44.602Z,3.12
2019-03-26T10:30:13.751Z,3.20
2019-03-26T10:32:42.386Z,1.95
2019-03-26T10:35:23.921Z,3.33
2019-03-26T10:37:52.274Z,4.03
2019-03-26T10:40:29.610Z,4.00
2019-03-26T10:42:58.801Z,4.10
2019-03-26T10:45:27.738Z,4.10
2019-03-26T10:47:56.597Z,3.25
2019-03-26T10:50:26.342Z,3.35
2019-03-26T10:52:57.346Z,3.40
2019-03-26T10:55:25.663Z,3.47
2019-03-26T10:57:55.450Z,3.42
2019-03-26T11:00:24.697Z,2.72
2019-03-26T11:02:54.192Z,3.20
2019-03-26T11:05:24.980Z,3.90
2019-03-26T11:07:54.014Z,3.65
2019-03-26T11:10:22.611Z,3.65
2019-03-26T11:12:51.493Z,4.97
2019-03-26T11:15:21.083Z,3.67
2019-03-26T11:17:52.611Z,3.67
2019-03-26T11:20:20.177Z,3.02
2019-03-26T11:22:48.070Z,3.75
2019-03-26T11:25:15.837Z,3.52
2019-03-26T11:27:44.498Z,3.22
2019-03-26T11:30:14.517Z,3.47
2019-03-26T11:32:43.275Z,3.00
2019-03-26T11:35:12.298Z,3.40
2019-03-26T11:37:41.008Z,3.95
2019-03-26T11:40:10.716Z,3.65
2019-03-26T11:42:42.103Z,3.00
2019-03-26T11:45:10.069Z,3.62
2019-03-26T11:47:38.262Z,3.17
2019-03-26T11:50:08.540Z,3.65
2019-03-26T11:52:39.133Z,3.65
2019-03-26T11:55:09.091Z,2.75
2019-03-26T11:57:36.895Z,2.80
2019-03-26T12:00:05.962Z,2.35
2019-03-26T12:02:33.630Z,3.17
2019-03-26T12:05:02.746Z,2.62
2019-03-26T12:07:36.561Z,3.08
2019-03-26T12:10:04.750Z,3.27
2019-03-26T12:12:33.527Z,3.00
2019-03-26T12:15:02.215Z,3.52
2019-03-26T12:17:29.938Z,3.52
2019-03-26T12:19:59.962Z,2.20
2019-03-26T12:22:31.330Z,3.05
2019-03-26T12:24:58.230Z,2.95
2019-03-26T12:27:25.832Z,3.62
2019-03-26T12:29:54.964Z,2.75
2019-03-26T12:32:24.091Z,2.60
2019-03-26T12:34:52.844Z,2.58
2019-03-26T12:37:21.513Z,3.45
2019-03-26T12:39:59.544Z,3.47
2019-03-26T12:42:24.719Z,3.47
2019-03-26T12:44:53.772Z,2.42
2019-03-26T12:47:22.752Z,3.20
2019-03-26T12:49:50.340Z,3.20
2019-03-26T12:52:19.106Z,2.95
2019-03-26T12:54:50.694Z,2.67
2019-03-26T12:57:18.288Z,2.47
2019-03-26T12:59:46.950Z,3.27
2019-03-26T13:02:16.214Z,3.85
2019-03-26T13:04:43.826Z,4.12
2019-03-26T13:07:12.690Z,3.40
2019-03-26T13:09:46.674Z,2.67
2019-03-26T13:12:14.255Z,2.55
2019-03-26T13:14:41.937Z,4.30
2019-03-26T13:17:10.635Z,4.28
2019-03-26T13:19:39.207Z,4.22
2019-03-26T13:22:10.929Z,3.85
2019-03-26T13:24:38.709Z,3.58
2019-03-26T13:27:07.287Z,3.92
2019-03-26T13:29:35.775Z,3.40
2019-03-26T13:32:04.445Z,2.90
2019-03-26T13:34:34.092Z,3.58
2019-03-26T13:37:03.250Z,2.95
2019-03-26T13:39:32.128Z,3.62
2019-03-26T13:42:00.714Z,3.33
2019-03-26T13:44:33.775Z,3.55
2019-03-26T13:47:02.515Z,2.52
2019-03-26T13:49:31.900Z,3.20
2019-03-26T13:52:00.715Z,2.75
2019-03-26T13:54:29.417Z,3.85
2019-03-26T13:57:01.229Z,3.35
2019-03-26T13:59:29.868Z,3.40
2019-03-26T14:01:59.333Z,3.75
2019-03-26T14:04:28.630Z,3.80
2019-03-26T14:06:57.462Z,3.40
2019-03-26T14:09:28.257Z,3.67
2019-03-26T14:11:57.813Z,3.08
2019-03-26T14:14:27.433Z,2.50
2019-03-26T14:16:57.238Z,3.02
2019-03-26T14:19:28.536Z,3.12
2019-03-26T14:21:57.519Z,2.87
2019-03-26T14:24:26.494Z,2.72
2019-03-26T14:26:55.509Z,2.98
2019-03-26T14:29:27.454Z,2.90
2019-03-26T14:31:59.588Z,2.85
2019-03-26T14:34:27.270Z,2.85
2019-03-26T14:36:55.173Z,4.28
2019-03-26T14:39:23.117Z,3.52
2019-03-26T14:41:51.391Z,3.27
2019-03-26T14:44:21.536Z,3.90
2019-03-26T14:46:50.423Z,3.62
2019-03-26T14:49:19.507Z,3.35
2019-03-26T14:51:48.585Z,3.90
2019-03-26T14:54:21.300Z,3.47
2019-03-26T14:56:50.276Z,3.62
2019-03-26T14:59:19.192Z,3.50
2019-03-26T15:01:48.071Z,4.00
2019-03-26T15:04:17.071Z,4.00
2019-03-26T15:06:48.480Z,4.45
2019-03-26T15:09:17.418Z,4.75
2019-03-26T15:11:47.119Z,4.35
2019-03-26T15:14:16.144Z,4.42
2019-03-26T15:16:49.122Z,4.45
2019-03-26T15:19:18.380Z,3.80
2019-03-26T15:21:47.511Z,3.45
2019-03-26T15:24:16.799Z,3.27
2019-03-26T15:26:47.567Z,3.05
2019-03-26T15:29:16.625Z,3.42
2019-03-26T15:31:45.659Z,3.58
2019-03-26T15:34:14.522Z,2.80
2019-03-26T15:36:43.714Z,3.27
2019-03-26T15:39:15.841Z,3.60
2019-03-26T15:41:45.111Z,3.00
2019-03-26T15:44:13.328Z,3.62
2019-03-26T15:46:42.292Z,3.00
2019-03-26T15:49:11.375Z,3.30
2019-03-26T15:51:42.545Z,3.60
2019-03-26T15:54:11.007Z,2.70
2019-03-26T15:56:39.859Z,3.15
2019-03-26T15:59:08.851Z,3.65
2019-03-26T16:01:44.816Z,3.12
2019-03-26T16:04:13.291Z,3.02
2019-03-26T16:06:40.988Z,2.83
2019-03-26T16:09:10.793Z,3.05
2019-03-26T16:11:38.381Z,2.77
2019-03-26T16:14:10.249Z,3.15
2019-03-26T16:16:38.832Z,2.98
2019-03-26T16:19:07.666Z,2.70
2019-03-26T16:21:37.018Z,2.67
2019-03-26T16:24:14.892Z,2.77
2019-03-26T16:26:42.515Z,2.40
2019-03-26T16:29:11.021Z,2.62
2019-03-26T16:31:42.487Z,2.05
2019-03-26T16:34:10.386Z,2.40
2019-03-26T16:36:38.602Z,2.20
2019-03-26T16:39:07.223Z,2.40
2019-03-26T16:41:48.078Z,2.70
2019-03-26T16:44:04.883Z,1.72
2019-03-26T16:46:36.208Z,2.40
2019-03-26T16:49:02.555Z,2.40
2019-03-26T16:51:30.720Z,2.12
2019-03-26T16:53:58.994Z,2.55
2019-03-26T16:56:26.755Z,3.15
2019-03-26T16:58:54.743Z,2.47
2019-03-26T17:01:24.011Z,2.65
2019-03-26T17:03:53.222Z,2.70
2019-03-26T17:06:21.302Z,2.45
2019-03-26T17:08:50.598Z,2.70
2019-03-26T17:11:19.591Z,2.65
2019-03-26T17:13:48.708Z,2.67
2019-03-26T17:16:20.365Z,2.67
2019-03-26T17:18:48.316Z,2.50
2019-03-26T17:21:18.386Z,2.70
2019-03-26T17:23:46.358Z,2.80
2019-03-26T17:26:15.576Z,2.95
2019-03-26T17:28:44.521Z,3.40
2019-03-26T17:31:13.387Z,2.90
2019-03-26T17:33:42.246Z,3.40
2019-03-26T17:36:11.535Z,3.08
2019-03-26T17:38:41.903Z,2.80
2019-03-26T17:41:10.355Z,3.15
2019-03-26T17:43:38.867Z,3.72
2019-03-26T17:46:07.139Z,3.42
2019-03-26T17:48:36.141Z,2.87
2019-03-26T17:51:05.030Z,2.77
2019-03-26T17:53:34.322Z,3.45
2019-03-26T17:56:03.124Z,3.10
2019-03-26T17:58:32.164Z,2.80
2019-03-26T18:01:01.363Z,3.60
2019-03-26T18:03:30.393Z,3.47
2019-03-26T18:05:59.414Z,3.58
2019-03-26T18:08:28.371Z,2.95
2019-03-26T18:10:57.524Z,2.58
2019-03-26T18:13:26.149Z,3.72
2019-03-26T18:15:54.882Z,3.08
2019-03-26T18:18:26.198Z,3.50
2019-03-26T18:20:53.869Z,4.10
2019-03-26T18:23:21.447Z,4.17
2019-03-26T18:25:51.190Z,3.90
2019-03-26T18:28:19.320Z,3.70
2019-03-26T18:30:48.711Z,3.85
2019-03-26T18:33:16.782Z,4.60
2019-03-26T18:35:46.094Z,4.40
2019-03-26T18:38:15.255Z,4.80
2019-03-26T18:40:44.901Z,4.95
2019-03-26T18:43:15.651Z,4.65
2019-03-26T18:45:44.624Z,5.65
2019-03-26T18:48:13.321Z,4.87
2019-03-26T18:50:42.323Z,4.95
2019-03-26T18:53:11.902Z,4.42
2019-03-26T18:55:40.999Z,5.08
2019-03-26T18:58:09.722Z,4.28
2019-03-26T19:00:38.557Z,3.70
2019-03-26T19:03:07.717Z,3.87
2019-03-26T19:05:37.592Z,3.52
2019-03-26T19:08:06.171Z,3.45
2019-03-26T19:10:35.639Z,3.50
2019-03-26T19:13:03.777Z,3.98
2019-03-26T19:15:33.166Z,4.25
2019-03-26T19:18:01.220Z,3.50
2019-03-26T19:20:31.953Z,3.72
2019-03-26T19:23:02.262Z,3.30
2019-03-26T19:25:30.962Z,4.15
2019-03-26T19:27:59.036Z,3.10
2019-03-26T19:30:26.638Z,3.75
2019-03-26T19:32:58.143Z,3.98
2019-03-26T19:35:28.192Z,4.00
2019-03-26T19:37:56.519Z,3.58
2019-03-26T19:40:24.839Z,3.92
2019-03-26T19:42:53.634Z,3.58
2019-03-26T19:45:24.292Z,3.47
2019-03-26T19:47:53.282Z,3.60
2019-03-26T19:50:22.347Z,3.80
2019-03-26T19:52:51.639Z,3.27
2019-03-26T19:55:19.705Z,3.35
2019-03-26T19:57:49.011Z,3.50
2019-03-26T20:00:19.847Z,4.42
2019-03-26T20:02:47.605Z,3.50
2019-03-26T20:05:16.481Z,4.50
2019-03-26T20:07:45.869Z,3.72
2019-03-26T20:10:16.664Z,4.10
2019-03-26T20:12:44.767Z,3.85
2019-03-26T20:15:14.519Z,3.30
2019-03-26T20:17:43.300Z,4.17
2019-03-26T20:20:13.202Z,3.70
2019-03-26T20:22:42.323Z,4.22
2019-03-26T20:25:20.537Z,3.87
2019-03-26T20:27:49.013Z,3.83
2019-03-26T20:30:17.267Z,4.15
2019-03-26T20:32:45.355Z,3.20
2019-03-26T20:35:14.911Z,4.28
2019-03-26T20:37:42.652Z,4.33
2019-03-26T20:40:12.248Z,4.62
2019-03-26T20:42:43.378Z,5.25
2019-03-26T20:45:14.424Z,4.35
2019-03-26T20:47:42.378Z,4.17
2019-03-26T20:50:12.609Z,4.78
2019-03-26T20:52:40.314Z,4.67
2019-03-26T20:55:10.214Z,4.35
2019-03-26T20:57:39.256Z,4.35
2019-03-26T21:00:09.759Z,4.95
2019-03-26T21:02:38.918Z,4.87
2019-03-26T21:05:09.142Z,4.75
2019-03-26T21:07:37.960Z,5.05
2019-03-26T21:10:07.849Z,4.97
2019-03-26T21:12:35.902Z,4.90
2019-03-26T21:15:06.010Z,4.90
2019-03-26T21:17:34.294Z,4.40
2019-03-26T21:20:03.291Z,4.95
2019-03-26T21:22:32.347Z,3.47
2019-03-26T21:25:01.280Z,5.17
2019-03-26T21:27:33.438Z,4.75
2019-03-26T21:30:10.699Z,4.83
2019-03-26T21:32:31.792Z,4.85
2019-03-26T21:34:59.546Z,4.80
2019-03-26T21:37:27.175Z,4.25
2019-03-26T21:39:56.794Z,4.15
2019-03-26T21:42:25.938Z,4.10
2019-03-26T21:44:55.343Z,4.40
2019-03-26T21:47:24.757Z,4.45
2019-03-26T21:49:52.851Z,4.72
2019-03-26T21:52:21.839Z,6.25
2019-03-26T21:54:50.716Z,4.83
2019-03-26T21:57:19.883Z,4.70
2019-03-26T21:59:47.901Z,5.25
2019-03-26T22:02:16.706Z,5.40
2019-03-26T22:04:45.737Z,4.50
2019-03-26T22:07:15.199Z,5.33
2019-03-26T22:09:43.302Z,4.80
2019-03-26T22:12:12.420Z,5.90
2019-03-26T22:14:41.557Z,5.37
2019-03-26T22:17:10.266Z,5.83
2019-03-26T22:19:39.605Z,6.00
2019-03-26T22:22:10.687Z,5.85
2019-03-26T22:24:39.855Z,6.35
2019-03-26T22:27:08.418Z,6.12
2019-03-26T22:29:36.236Z,5.50
2019-03-26T22:32:04.827Z,6.55
2019-03-26T22:34:34.010Z,5.97
2019-03-26T22:37:03.518Z,6.40
2019-03-26T22:39:33.325Z,6.10
2019-03-26T22:42:01.158Z,5.28
2019-03-26T22:44:31.688Z,6.90
2019-03-26T22:47:01.055Z,6.72
2019-03-26T22:49:30.434Z,6.58
2019-03-26T22:51:59.396Z,6.42
2019-03-26T22:54:27.039Z,6.15
2019-03-26T22:56:56.587Z,5.40
2019-03-26T22:59:26.311Z,5.65
2019-03-26T23:01:54.559Z,5.75
2019-03-26T23:04:23.590Z,5.40
2019-03-26T23:06:52.559Z,5.67
2019-03-26T23:09:22.170Z,5.50
2019-03-26T23:11:50.559Z,6.70
2019-03-26T23:14:18.351Z,5.95
2019-03-26T23:16:47.842Z,7.17
2019-03-26T23:19:16.431Z,6.60
2019-03-26T23:21:45.507Z,7.62
2019-03-26T23:24:14.426Z,6.62
2019-03-26T23:26:43.438Z,6.12
2019-03-26T23:29:12.521Z,6.35
2019-03-26T23:31:42.410Z,6.50
2019-03-26T23:34:11.494Z,6.80
2019-03-26T23:36:40.809Z,7.28
2019-03-26T23:39:08.399Z,7.90
2019-03-26T23:41:39.773Z,5.65
2019-03-26T23:44:08.554Z,6.83
2019-03-26T23:46:37.906Z,8.20
2019-03-26T23:49:05.482Z,6.40
2019-03-26T23:51:34.755Z,6.55
2019-03-26T23:54:03.562Z,7.58
2019-03-26T23:56:36.894Z,7.45
2019-03-26T23:59:05.414Z,6.50
